Time;durP1;ratioP1;P1;durP2;ratioP2;P2;SDS_P1;SDS_P2;PMS_P1;PMS_P2;Temp;Humidity;BMP_temperature;BMP_pressure;BME280_temperature;BME280_humidity;BME280_pressure;Samples;Min_cycle;Max_cycle;Signal;HPM_P1;HPM_P2
2021/01/09 00:02:22;;;;;;;24.80;11.85;;;;;;;26.36;12.86;98047.75;5080553;28;20040;-84
2021/01/09 00:04:48;;;;;;;29.02;13.02;;;;;;;26.26;13.17;98052.47;5084674;28;20089;-84
2021/01/09 00:07:14;;;;;;;31.67;12.93;;;;;;;25.91;13.43;98057.13;5087063;28;20058;-84
2021/01/09 00:09:40;;;;;;;25.15;10.75;;;;;;;25.82;13.57;98045.75;5072040;28;20073;-84
2021/01/09 00:12:11;;;;;;;23.23;11.15;;;;;;;25.92;13.48;98043.88;5095714;28;20051;-84
2021/01/09 00:14:38;;;;;;;23.65;11.27;;;;;;;25.70;13.70;98063.38;5091571;28;20063;-84
2021/01/09 00:17:05;;;;;;;25.05;10.73;;;;;;;25.55;13.94;98059.41;5071222;28;20043;-84
2021/01/09 00:19:31;;;;;;;20.45;9.82;;;;;;;25.61;13.74;98062.44;5074230;28;20036;-84
2021/01/09 00:21:58;;;;;;;23.95;10.98;;;;;;;25.90;13.43;98052.78;5089331;28;20028;-84
2021/01/09 00:24:24;;;;;;;33.90;14.68;;;;;;;26.16;13.10;98048.00;5068063;28;20028;-84
2021/01/09 00:26:50;;;;;;;28.02;12.68;;;;;;;26.21;13.02;98055.09;5090585;28;20046;-84
2021/01/09 00:29:16;;;;;;;23.58;11.40;;;;;;;26.01;13.31;98056.03;5090595;28;20020;-84
2021/01/09 00:31:42;;;;;;;27.23;12.85;;;;;;;26.07;13.12;98056.25;5084315;28;20107;-84
2021/01/09 00:34:08;;;;;;;29.95;15.25;;;;;;;25.79;13.36;98057.91;5088653;28;20032;-84
2021/01/09 00:36:35;;;;;;;21.13;10.90;;;;;;;25.77;13.51;98059.56;5088090;28;20502;-84
2021/01/09 00:39:03;;;;;;;24.55;10.18;;;;;;;26.14;13.06;98058.13;5085037;28;20064;-84
2021/01/09 00:41:30;;;;;;;27.63;13.18;;;;;;;26.45;13.06;98059.94;5087384;28;20032;-84
2021/01/09 00:43:58;;;;;;;23.30;10.82;;;;;;;26.49;13.06;98059.81;5086289;28;20040;-84
2021/01/09 00:46:25;;;;;;;26.13;12.13;;;;;;;26.60;13.02;98061.06;5089997;28;20497;-84
2021/01/09 00:48:51;;;;;;;25.83;10.80;;;;;;;26.71;12.91;98060.69;5085605;28;20085;-81
2021/01/09 00:51:18;;;;;;;25.63;12.52;;;;;;;26.74;12.89;98059.81;5081326;28;20036;-84
2021/01/09 00:53:45;;;;;;;29.50;13.05;;;;;;;26.63;13.17;98064.97;5093581;28;20040;-82
2021/01/09 00:56:15;;;;;;;28.80;13.70;;;;;;;26.62;13.08;98067.03;5089932;28;20549;-82
2021/01/09 00:58:42;;;;;;;27.27;12.63;;;;;;;26.56;13.04;98062.38;5083351;28;20051;-82
2021/01/09 01:01:08;;;;;;;28.67;13.35;;;;;;;26.39;13.13;98070.19;5079498;28;20021;-82
2021/01/09 01:03:34;;;;;;;25.58;11.80;;;;;;;26.12;13.18;98072.63;5092150;28;20502;-84
2021/01/09 01:06:00;;;;;;;25.02;11.88;;;;;;;26.18;13.21;98070.06;5085877;28;20028;-82
2021/01/09 01:08:28;;;;;;;24.08;11.88;;;;;;;26.25;13.33;98069.84;5082464;28;20047;-84
2021/01/09 01:10:55;;;;;;;24.63;11.68;;;;;;;26.39;12.97;98069.38;5085820;28;20035;-84
2021/01/09 01:13:22;;;;;;;26.75;11.60;;;;;;;26.64;12.84;98060.94;5089682;28;20384;-83
2021/01/09 01:15:49;;;;;;;28.02;13.10;;;;;;;26.47;12.85;98062.28;5089290;28;20028;-82
2021/01/09 01:18:15;;;;;;;25.45;11.60;;;;;;;26.00;13.56;98062.09;5084810;28;20476;-82
2021/01/09 01:20:41;;;;;;;27.95;12.95;;;;;;;26.22;13.42;98057.44;5088982;28;20105;-82
2021/01/09 01:23:07;;;;;;;23.83;10.88;;;;;;;26.47;13.04;98056.66;5087194;28;20034;-82
2021/01/09 01:25:34;;;;;;;29.30;12.10;;;;;;;26.46;12.98;98060.72;5085176;28;20024;-82
2021/01/09 01:28:00;;;;;;;31.70;14.23;;;;;;;26.46;12.85;98066.34;5070843;28;20024;-82
2021/01/09 01:30:26;;;;;;;27.75;11.75;;;;;;;26.58;12.57;98063.50;5086769;28;20479;-82
2021/01/09 01:32:52;;;;;;;28.52;13.45;;;;;;;26.54;12.57;98073.31;5086343;28;20036;-82
2021/01/09 01:35:18;;;;;;;34.22;15.25;;;;;;;26.55;12.64;98074.91;5079728;28;20099;-82
2021/01/09 01:37:44;;;;;;;28.05;12.52;;;;;;;26.56;12.78;98068.81;5086656;28;20041;-82
2021/01/09 01:40:11;;;;;;;27.45;12.13;;;;;;;26.68;12.80;98070.03;5088399;28;20036;-82
2021/01/09 01:42:37;;;;;;;27.20;10.70;;;;;;;26.78;12.42;98068.16;5087059;28;20036;-82
2021/01/09 01:45:03;;;;;;;29.38;12.98;;;;;;;26.86;12.60;98073.13;5061118;28;20454;-82
2021/01/09 01:47:30;;;;;;;24.05;10.93;;;;;;;26.45;12.83;98074.00;5085361;28;20064;-82
2021/01/09 01:49:56;;;;;;;26.60;11.93;;;;;;;26.31;13.19;98073.66;5087382;28;20377;-82
2021/01/09 01:52:22;;;;;;;26.88;11.73;;;;;;;26.19;13.16;98072.41;5091512;28;20024;-82
2021/01/09 01:54:48;;;;;;;32.63;11.90;;;;;;;26.29;13.11;98062.84;5094203;28;20077;-82
2021/01/09 01:57:15;;;;;;;26.08;11.13;;;;;;;26.45;12.86;98065.56;5086886;28;20114;-82
2021/01/09 01:59:41;;;;;;;27.75;11.25;;;;;;;26.51;12.51;98068.59;5086982;28;20499;-82
2021/01/09 02:02:09;;;;;;;29.73;13.48;;;;;;;26.48;12.62;98069.50;5089647;28;20115;-82
2021/01/09 02:04:36;;;;;;;28.48;13.30;;;;;;;26.47;12.54;98067.91;5077966;28;20045;-82
2021/01/09 02:07:08;;;;;;;31.42;12.65;;;;;;;26.39;12.91;98073.00;5089509;28;20032;-82
2021/01/09 02:09:40;;;;;;;25.20;10.70;;;;;;;26.05;13.08;98079.22;5090499;28;20032;-82
2021/01/09 02:12:18;;;;;;;25.50;11.60;;;;;;;25.92;13.29;98077.63;5084082;28;20037;-82
2021/01/09 02:14:47;;;;;;;27.40;12.30;;;;;;;25.87;13.29;98078.19;5093008;28;20500;-82
2021/01/09 02:17:15;;;;;;;28.15;11.95;;;;;;;25.65;13.15;98085.66;5081469;28;20028;-82
2021/01/09 02:19:43;;;;;;;25.27;10.90;;;;;;;25.83;13.16;98085.94;5087927;28;20107;-82
2021/01/09 02:22:12;;;;;;;25.23;11.18;;;;;;;25.83;13.19;98085.94;5089145;28;20513;-83
2021/01/09 02:24:39;;;;;;;32.80;12.68;;;;;;;25.62;13.23;98089.34;5083861;28;20036;-82
2021/01/09 02:27:06;;;;;;;24.17;10.32;;;;;;;25.71;13.22;98086.69;5087911;28;20360;-82
2021/01/09 02:29:44;;;;;;;25.98;11.15;;;;;;;25.72;12.97;98082.66;5088799;28;20036;-82
2021/01/09 02:32:15;;;;;;;29.60;11.93;;;;;;;25.96;13.06;98084.72;5088039;28;20080;-82
2021/01/09 02:34:54;;;;;;;24.58;10.55;;;;;;;26.00;12.96;98084.59;5084597;28;20399;-82
2021/01/09 02:37:22;;;;;;;28.60;11.63;;;;;;;26.06;12.95;98082.84;5088833;28;20059;-82
2021/01/09 02:39:50;;;;;;;26.45;12.05;;;;;;;26.23;12.73;98078.72;5090745;28;20040;-82
2021/01/09 02:42:18;;;;;;;28.80;11.57;;;;;;;26.38;12.80;98074.22;5091347;28;20062;-82
2021/01/09 02:44:46;;;;;;;25.25;11.18;;;;;;;26.37;12.70;98081.09;5092171;28;20118;-82
2021/01/09 02:47:12;;;;;;;31.45;12.57;;;;;;;26.37;12.49;98075.44;5083408;28;20024;-82
2021/01/09 02:49:38;;;;;;;27.27;12.82;;;;;;;26.24;12.83;98083.09;5087644;28;20488;-82
2021/01/09 02:52:05;;;;;;;33.35;15.27;;;;;;;26.20;12.77;98078.81;5088948;28;20047;-82
2021/01/09 02:54:31;;;;;;;30.50;14.50;;;;;;;26.14;12.96;98077.81;5084759;28;20484;-82
2021/01/09 02:56:57;;;;;;;30.10;15.25;;;;;;;25.88;13.16;98082.56;5084659;28;20063;-82
2021/01/09 02:59:23;;;;;;;27.63;12.68;;;;;;;25.54;13.25;98090.78;5087496;28;20028;-82
2021/01/09 03:01:49;;;;;;;24.83;12.15;;;;;;;25.29;13.62;98083.00;5093438;28;20102;-82
2021/01/09 03:04:15;;;;;;;20.33;9.38;;;;;;;25.14;13.58;98082.56;5093189;28;20162;-82
2021/01/09 03:06:42;;;;;;;19.35;9.40;;;;;;;25.49;13.29;98083.66;5091083;28;20440;-82
2021/01/09 03:09:08;;;;;;;16.92;8.60;;;;;;;25.12;13.62;98082.22;5093072;28;20384;-82
2021/01/09 03:11:34;;;;;;;15.30;7.60;;;;;;;25.42;13.38;98081.81;5093437;28;20486;-83
2021/01/09 03:14:00;;;;;;;19.98;8.40;;;;;;;25.49;13.44;98075.22;5090110;28;20039;-82
2021/01/09 03:16:26;;;;;;;15.23;8.38;;;;;;;25.75;13.22;98084.56;5081235;28;20450;-82
2021/01/09 03:18:52;;;;;;;13.57;6.78;;;;;;;24.91;13.84;98088.38;5093803;28;20498;-82
2021/01/09 03:21:19;;;;;;;18.75;8.15;;;;;;;25.34;13.62;98082.47;5082143;28;20129;-82
2021/01/09 03:23:45;;;;;;;17.90;8.40;;;;;;;25.21;13.90;98082.38;5094335;28;20039;-82
2021/01/09 03:26:11;;;;;;;11.98;6.55;;;;;;;25.64;13.45;98086.88;5084946;28;20454;-82
2021/01/09 03:28:37;;;;;;;12.88;6.85;;;;;;;25.81;13.38;98089.19;5084395;28;20070;-82
2021/01/09 03:31:03;;;;;;;13.02;6.53;;;;;;;26.04;12.94;98083.25;5098756;28;20032;-82
2021/01/09 03:33:30;;;;;;;13.75;6.78;;;;;;;25.51;13.56;98092.44;5087741;28;20101;-82
2021/01/09 03:35:56;;;;;;;13.80;7.40;;;;;;;25.03;13.99;98084.09;5081197;28;20418;-82
2021/01/09 03:38:22;;;;;;;13.15;7.35;;;;;;;24.59;14.22;98085.56;5089686;28;20055;-82
2021/01/09 03:40:48;;;;;;;15.13;6.90;;;;;;;24.84;14.07;98087.78;5092702;28;20035;-82
2021/01/09 03:43:15;;;;;;;11.80;6.35;;;;;;;25.03;13.76;98084.09;5091500;28;20032;-83
2021/01/09 03:45:41;;;;;;;14.55;6.13;;;;;;;25.04;13.79;98086.44;5089043;28;20081;-83
2021/01/09 03:48:07;;;;;;;11.20;5.05;;;;;;;25.20;13.50;98089.25;5065627;28;20117;-83
2021/01/09 03:50:34;;;;;;;11.80;5.22;;;;;;;25.41;13.38;98101.94;5087326;28;20428;-83
2021/01/09 03:53:00;;;;;;;11.38;5.18;;;;;;;25.63;13.00;98096.53;5082500;28;20037;-83
2021/01/09 03:55:26;;;;;;;10.38;5.68;;;;;;;25.61;13.04;98097.00;5079949;28;20104;-83
2021/01/09 03:57:52;;;;;;;12.18;5.50;;;;;;;25.73;12.71;98096.25;5064792;28;21926;-83
2021/01/09 04:00:18;;;;;;;8.20;4.50;;;;;;;25.71;12.76;98100.75;5080040;28;20036;-84
2021/01/09 04:02:44;;;;;;;9.13;4.68;;;;;;;25.64;12.66;98103.75;5092609;28;20483;-84
2021/01/09 04:05:11;;;;;;;17.85;6.80;;;;;;;25.71;12.68;98106.38;5088356;28;20077;-84
2021/01/09 04:07:37;;;;;;;20.08;8.57;;;;;;;25.73;12.74;98099.06;5091719;28;20028;-83
2021/01/09 04:10:04;;;;;;;17.00;8.25;;;;;;;25.49;12.88;98103.34;5091579;28;20031;-83
2021/01/09 04:12:31;;;;;;;18.58;7.95;;;;;;;25.51;12.96;98103.69;5089083;28;20552;-83
2021/01/09 04:14:57;;;;;;;12.52;6.07;;;;;;;25.33;13.13;98106.97;5084912;28;20059;-83
2021/01/09 04:17:23;;;;;;;11.25;5.43;;;;;;;25.06;13.25;98100.06;5081925;28;20380;-83
2021/01/09 04:19:49;;;;;;;10.93;5.40;;;;;;;24.98;13.42;98105.06;5084221;28;20059;-83
2021/01/09 04:22:15;;;;;;;10.65;5.47;;;;;;;25.21;13.16;98104.88;5090845;28;20033;-83
2021/01/09 04:24:41;;;;;;;9.35;4.63;;;;;;;25.47;13.18;98103.00;5088551;28;20050;-83
2021/01/09 04:27:07;;;;;;;10.15;5.32;;;;;;;25.08;13.01;98103.22;5090246;28;20466;-83
2021/01/09 04:29:33;;;;;;;11.63;5.03;;;;;;;24.86;13.37;98110.59;5087679;28;20085;-83
2021/01/09 04:31:59;;;;;;;11.02;5.03;;;;;;;24.77;13.55;98116.81;5086586;28;20024;-83
2021/01/09 04:34:26;;;;;;;10.18;5.15;;;;;;;24.78;13.54;98107.19;5088020;28;20488;-83
2021/01/09 04:36:53;;;;;;;10.68;5.43;;;;;;;24.90;13.43;98108.50;5087642;28;20037;-83
2021/01/09 04:39:20;;;;;;;11.98;5.18;;;;;;;24.84;13.57;98111.03;5086578;28;20076;-83
2021/01/09 04:41:47;;;;;;;13.35;5.93;;;;;;;24.73;13.74;98114.09;5087702;28;20043;-83
2021/01/09 04:44:14;;;;;;;10.38;4.88;;;;;;;25.05;13.45;98109.72;5073866;28;20043;-83
2021/01/09 04:46:49;;;;;;;10.93;5.53;;;;;;;25.25;13.27;98110.41;5091030;28;20039;-83
2021/01/09 04:49:34;;;;;;;10.60;4.50;;;;;;;25.31;13.43;98105.81;5084174;28;20031;-83
2021/01/09 04:52:02;;;;;;;9.25;5.13;;;;;;;25.46;13.25;98114.69;5083357;28;20045;-83
2021/01/09 04:54:32;;;;;;;10.57;4.50;;;;;;;25.40;13.32;98117.22;5088433;28;20032;-83
2021/01/09 04:56:58;;;;;;;8.60;4.38;;;;;;;25.57;13.36;98116.00;5086035;28;20028;-83
2021/01/09 04:59:25;;;;;;;9.75;4.50;;;;;;;25.85;13.01;98117.22;5086643;28;20404;-83
2021/01/09 05:01:52;;;;;;;7.70;4.50;;;;;;;25.80;13.08;98129.00;5081088;28;20032;-83
2021/01/09 05:04:19;;;;;;;10.73;4.65;;;;;;;25.89;13.17;98126.34;5068945;28;20439;-83
2021/01/09 05:06:47;;;;;;;11.98;5.55;;;;;;;25.79;13.11;98128.22;5071747;28;20115;-83
2021/01/09 05:09:15;;;;;;;9.82;4.20;;;;;;;25.33;13.40;98132.25;5046192;28;20035;-83
2021/01/09 05:11:42;;;;;;;11.18;5.03;;;;;;;24.84;14.01;98135.50;5068400;28;20043;-83
2021/01/09 05:14:09;;;;;;;7.50;3.63;;;;;;;24.74;14.08;98135.31;5065903;28;20115;-83
2021/01/09 05:16:37;;;;;;;9.25;5.00;;;;;;;25.23;13.86;98130.50;5068055;28;20062;-84
2021/01/09 05:19:04;;;;;;;9.82;5.28;;;;;;;25.56;13.45;98134.09;5066562;28;20476;-83
2021/01/09 05:21:33;;;;;;;8.00;4.55;;;;;;;25.69;13.33;98136.97;5072387;28;20032;-84
2021/01/09 05:24:03;;;;;;;9.60;5.80;;;;;;;25.64;13.39;98134.69;5079272;28;20129;-84
2021/01/09 05:26:30;;;;;;;7.85;4.47;;;;;;;25.18;13.67;98136.66;5082699;28;20032;-84
2021/01/09 05:28:58;;;;;;;10.75;5.35;;;;;;;25.41;13.58;98135.69;5085806;28;20414;-84
2021/01/09 05:31:27;;;;;;;7.93;4.50;;;;;;;25.76;13.25;98137.56;5083288;28;20028;-84
2021/01/09 05:33:53;;;;;;;10.07;5.50;;;;;;;26.04;13.24;98142.34;5089865;28;20036;-83
2021/01/09 05:36:21;;;;;;;12.27;5.35;;;;;;;26.23;13.05;98151.91;5091934;28;20106;-83
2021/01/09 05:38:48;;;;;;;7.38;4.47;;;;;;;26.34;12.80;98149.56;5098394;28;20085;-84
2021/01/09 05:41:22;;;;;;;7.68;4.30;;;;;;;26.32;12.92;98152.03;5093661;28;20531;-84
2021/01/09 05:44:06;;;;;;;13.13;5.88;;;;;;;26.24;12.91;98158.31;5085666;28;20078;-84
2021/01/09 05:46:44;;;;;;;15.82;6.38;;;;;;;26.03;13.05;98157.69;5085295;28;20050;-83
2021/01/09 05:49:10;;;;;;;13.95;6.20;;;;;;;26.10;13.08;98162.34;5099284;28;20615;-83
2021/01/09 05:51:38;;;;;;;11.05;6.30;;;;;;;26.09;12.96;98163.56;5084307;28;20493;-84
2021/01/09 05:54:04;;;;;;;12.68;6.20;;;;;;;25.92;13.14;98164.84;5087597;28;20759;-83
2021/01/09 05:56:34;;;;;;;12.13;6.22;;;;;;;25.30;13.33;98166.06;5085878;28;20032;-83
2021/01/09 05:59:00;;;;;;;13.45;7.47;;;;;;;25.29;13.63;98170.91;5084007;28;20036;-83
2021/01/09 06:01:28;;;;;;;13.23;6.47;;;;;;;25.31;13.36;98176.09;5086180;28;20032;-83
2021/01/09 06:04:15;;;;;;;8.90;4.95;;;;;;;25.23;13.54;98183.09;5086592;28;20032;-83
2021/01/09 06:06:46;;;;;;;13.75;7.30;;;;;;;25.23;13.51;98178.28;5068883;28;20107;-83
2021/01/09 06:09:20;;;;;;;15.65;7.65;;;;;;;25.15;13.55;98185.31;5085261;28;20119;-84
2021/01/09 06:11:47;;;;;;;11.57;6.78;;;;;;;25.21;13.59;98191.97;5086005;28;20028;-84
2021/01/09 06:14:14;;;;;;;12.77;6.03;;;;;;;25.19;13.64;98193.66;5085345;28;20028;-84
2021/01/09 06:16:43;;;;;;;13.32;6.32;;;;;;;25.20;13.71;98196.03;5074816;28;20032;-83
2021/01/09 06:19:10;;;;;;;12.00;5.88;;;;;;;25.36;13.35;98198.03;5065683;28;20035;-84
2021/01/09 06:21:37;;;;;;;12.80;5.90;;;;;;;25.38;13.43;98195.59;5082532;28;20063;-83
2021/01/09 06:24:05;;;;;;;11.48;6.18;;;;;;;25.36;13.67;98192.44;5087499;28;20093;-83
2021/01/09 06:26:32;;;;;;;11.80;5.75;;;;;;;25.52;13.41;98203.69;5088100;28;20255;-84
2021/01/09 06:29:20;;;;;;;14.80;6.40;;;;;;;25.63;13.16;98206.22;5087121;28;20024;-84
2021/01/09 06:31:57;;;;;;;13.57;6.00;;;;;;;25.36;13.51;98206.47;5083592;28;20031;-84
2021/01/09 06:34:25;;;;;;;16.80;8.52;;;;;;;25.52;13.44;98208.50;5081648;28;20541;-84
2021/01/09 06:36:58;;;;;;;13.00;6.70;;;;;;;25.58;13.37;98207.53;5097232;28;20500;-84
2021/01/09 06:39:26;;;;;;;14.65;7.90;;;;;;;25.79;13.08;98218.22;5094405;28;20054;-84
2021/01/09 06:41:56;;;;;;;22.23;9.73;;;;;;;25.81;13.23;98220.63;5089568;28;20128;-84
2021/01/09 06:44:25;;;;;;;20.25;10.40;;;;;;;25.87;13.27;98221.63;5094226;28;20067;-84
2021/01/09 06:46:55;;;;;;;21.00;10.52;;;;;;;25.91;13.19;98225.94;5088746;28;20056;-84
2021/01/09 06:49:22;;;;;;;16.88;8.07;;;;;;;26.09;13.08;98231.09;5080406;28;20104;-83
2021/01/09 06:52:02;;;;;;;16.95;8.65;;;;;;;26.05;13.08;98228.38;5092555;28;20060;-84
2021/01/09 06:54:41;;;;;;;13.32;6.80;;;;;;;26.22;13.11;98229.13;5086365;28;20028;-84
2021/01/09 06:57:09;;;;;;;14.50;7.55;;;;;;;26.01;13.21;98230.50;5085828;28;20039;-84
2021/01/09 06:59:37;;;;;;;13.95;7.07;;;;;;;25.85;13.15;98238.97;5085859;28;20028;-84
2021/01/09 07:02:15;;;;;;;19.23;7.95;;;;;;;25.27;13.50;98235.22;5091458;28;20028;-84
2021/01/09 07:04:58;;;;;;;15.30;7.45;;;;;;;23.83;14.83;98241.03;5089788;28;20036;-84
2021/01/09 07:07:35;;;;;;;13.13;6.35;;;;;;;24.42;14.45;98241.13;5082925;28;20420;-84
2021/01/09 07:10:08;;;;;;;13.77;7.00;;;;;;;24.17;14.57;98250.03;5090009;28;20416;-84
2021/01/09 07:12:35;;;;;;;12.32;6.45;;;;;;;24.18;14.66;98257.22;5092106;28;20036;-84
2021/01/09 07:15:06;;;;;;;13.90;6.38;;;;;;;24.85;14.05;98253.06;5086724;28;20536;-84
2021/01/09 07:17:40;;;;;;;14.75;7.47;;;;;;;25.06;14.08;98252.56;5097269;28;20112;-84
2021/01/09 07:20:11;;;;;;;15.63;6.43;;;;;;;25.42;13.79;98261.72;5089659;28;20037;-85
2021/01/09 07:22:45;;;;;;;12.15;5.53;;;;;;;25.57;13.72;98267.03;5089196;28;20103;-85
2021/01/09 07:25:11;;;;;;;14.23;7.45;;;;;;;25.55;13.83;98263.88;5087778;28;20540;-84
2021/01/09 07:27:50;;;;;;;12.75;6.90;;;;;;;25.56;13.93;98271.06;5072347;28;20442;-83
2021/01/09 07:30:18;;;;;;;10.45;6.10;;;;;;;25.95;13.65;98277.28;5086878;28;20032;-84
2021/01/09 07:32:52;;;;;;;18.20;7.88;;;;;;;25.98;13.71;98273.56;5086167;28;20500;-84
2021/01/09 07:35:24;;;;;;;15.80;7.78;;;;;;;25.94;13.74;98278.53;5090586;28;20063;-84
2021/01/09 07:38:03;;;;;;;15.60;8.10;;;;;;;25.66;13.81;98293.31;5088389;28;20036;-88
2021/01/09 07:40:34;;;;;;;19.48;9.27;;;;;;;25.95;13.83;98282.13;5089018;28;20063;-86
2021/01/09 07:43:01;;;;;;;25.58;11.35;;;;;;;26.36;13.39;98282.22;5091383;28;20116;-87
2021/01/09 07:45:32;;;;;;;23.17;11.02;;;;;;;26.16;13.74;98283.59;5085364;28;20055;-86
2021/01/09 07:47:58;;;;;;;14.95;7.28;;;;;;;26.46;13.50;98286.78;5082768;28;20035;-86
2021/01/09 07:50:25;;;;;;;19.45;8.48;;;;;;;26.78;13.35;98293.53;5075929;28;20040;-86
2021/01/09 07:53:05;;;;;;;16.60;8.07;;;;;;;26.67;13.43;98294.63;5088686;28;20425;-86
2021/01/09 07:55:47;;;;;;;20.55;9.50;;;;;;;26.57;13.33;98292.88;5087944;28;20036;-86
2021/01/09 07:58:13;;;;;;;20.92;9.07;;;;;;;25.91;13.94;98295.47;5099589;28;20085;-86
2021/01/09 08:00:42;;;;;;;13.65;6.82;;;;;;;26.45;13.61;98299.25;5087736;28;20066;-86
2021/01/09 08:03:09;;;;;;;18.33;7.05;;;;;;;26.47;13.68;98293.97;5089678;28;20124;-86
2021/01/09 08:05:37;;;;;;;15.05;7.40;;;;;;;26.72;13.28;98293.28;5085793;28;20024;-86
2021/01/09 08:08:04;;;;;;;23.02;9.82;;;;;;;26.64;13.23;98292.69;5084845;28;20020;-86
2021/01/09 08:10:37;;;;;;;13.45;7.65;;;;;;;25.50;14.26;98296.13;5093959;28;20024;-87
2021/01/09 08:13:06;;;;;;;11.35;6.45;;;;;;;25.77;14.01;98295.84;5089341;28;20396;-86
2021/01/09 08:15:34;;;;;;;12.35;6.85;;;;;;;25.41;14.30;98291.06;5090240;28;20123;-86
2021/01/09 08:18:02;;;;;;;15.63;8.38;;;;;;;25.03;14.50;98298.38;5092203;28;20032;-85
2021/01/09 08:20:29;;;;;;;11.57;6.45;;;;;;;24.63;14.87;98292.00;5084547;28;20024;-86
2021/01/09 08:23:01;;;;;;;12.73;6.45;;;;;;;25.00;14.85;98295.66;5088964;28;20032;-85
2021/01/09 08:25:29;;;;;;;13.85;7.15;;;;;;;25.01;14.33;98295.22;5090431;28;20028;-85
2021/01/09 08:27:57;;;;;;;13.45;6.35;;;;;;;25.55;14.10;98301.22;5087727;28;20152;-85
2021/01/09 08:30:30;;;;;;;12.30;6.10;;;;;;;25.83;13.83;98292.06;5092855;28;20028;-85
2021/01/09 08:33:08;;;;;;;12.15;6.38;;;;;;;25.56;13.95;98307.63;5090994;28;20032;-85
2021/01/09 08:35:36;;;;;;;16.60;7.28;;;;;;;25.83;13.71;98302.53;5090622;28;20060;-85
2021/01/09 08:38:06;;;;;;;15.57;8.70;;;;;;;25.09;14.43;98313.50;5089046;28;20119;-84
2021/01/09 08:40:33;;;;;;;12.45;6.57;;;;;;;24.97;14.77;98316.97;5080890;28;20068;-84
2021/01/09 08:43:06;;;;;;;14.50;8.00;;;;;;;23.83;15.23;98317.53;5087827;28;20035;-84
2021/01/09 08:45:49;;;;;;;13.60;7.07;;;;;;;24.63;14.94;98313.66;5087311;28;20101;-84
2021/01/09 08:48:19;;;;;;;13.77;7.10;;;;;;;24.51;14.80;98317.09;5090424;28;20024;-84
2021/01/09 08:50:47;;;;;;;10.33;5.97;;;;;;;24.93;14.52;98324.69;5073262;28;20080;-83
2021/01/09 08:53:15;;;;;;;10.45;5.72;;;;;;;25.71;14.06;98320.91;5076139;28;20123;-83
2021/01/09 08:55:42;;;;;;;11.40;6.75;;;;;;;26.15;13.97;98330.66;5085633;28;20023;-84
2021/01/09 08:58:11;;;;;;;13.30;7.50;;;;;;;26.09;13.90;98326.78;5087808;28;20058;-84
2021/01/09 09:00:38;;;;;;;8.90;5.90;;;;;;;26.33;13.67;98330.97;5087282;28;20031;-84
2021/01/09 09:03:07;;;;;;;9.27;5.78;;;;;;;25.96;13.71;98328.72;5090692;28;20035;-84
2021/01/09 09:05:33;;;;;;;12.48;6.35;;;;;;;24.41;14.89;98324.50;5086894;28;20029;-83
2021/01/09 09:08:03;;;;;;;14.18;7.35;;;;;;;22.88;16.36;98330.16;5073704;28;20040;-83
2021/01/09 09:10:32;;;;;;;14.20;6.97;;;;;;;22.09;17.42;98336.25;5085800;28;20407;-84
2021/01/09 09:13:24;;;;;;;15.20;8.32;;;;;;;22.49;16.80;98338.22;5087142;28;20042;-83
2021/01/09 09:15:52;;;;;;;14.63;7.82;;;;;;;20.88;18.54;98319.56;5082801;28;20523;-84
2021/01/09 09:18:20;;;;;;;14.75;8.40;;;;;;;23.22;16.66;98314.06;5070796;28;20361;-83
2021/01/09 09:20:49;;;;;;;17.48;8.88;;;;;;;22.87;16.95;98322.22;5090452;28;20124;-84
2021/01/09 09:23:16;;;;;;;14.70;7.15;;;;;;;23.63;16.43;98316.69;5082066;28;20107;-84
2021/01/09 09:25:42;;;;;;;14.45;8.43;;;;;;;21.56;17.84;98323.53;5088344;28;20040;-84
2021/01/09 09:28:09;;;;;;;17.65;9.90;;;;;;;20.53;19.47;98309.34;5090582;28;20020;-83
2021/01/09 09:30:35;;;;;;;18.55;10.35;;;;;;;20.76;18.67;98308.84;5082528;28;20037;-84
2021/01/09 09:33:14;;;;;;;23.80;12.13;;;;;;;21.43;18.03;98308.44;5093012;28;20024;-84
2021/01/09 09:35:41;;;;;;;15.52;8.27;;;;;;;21.94;18.18;98316.00;5060647;28;20584;-85
2021/01/09 09:38:10;;;;;;;14.88;7.72;;;;;;;22.69;17.04;98300.03;5080916;28;20032;-84
2021/01/09 09:40:38;;;;;;;14.02;9.05;;;;;;;22.36;17.55;98298.00;5089443;28;20044;-84
2021/01/09 09:43:20;;;;;;;16.88;8.70;;;;;;;21.83;18.06;98316.09;5092048;28;20127;-84
2021/01/09 09:45:55;;;;;;;18.48;9.68;;;;;;;20.80;18.88;98306.81;5088705;28;20039;-84
2021/01/09 09:48:42;;;;;;;16.90;9.05;;;;;;;22.59;17.71;98307.31;5089913;28;20045;-84
2021/01/09 09:51:10;;;;;;;16.73;8.27;;;;;;;21.92;18.50;98299.66;5085327;28;20039;-84
2021/01/09 09:53:40;;;;;;;12.77;7.60;;;;;;;23.88;16.79;98291.81;5083786;28;20097;-84
2021/01/09 09:56:12;;;;;;;13.02;7.60;;;;;;;24.66;15.47;98293.94;5092560;28;20031;-84
2021/01/09 09:58:39;;;;;;;15.48;9.15;;;;;;;23.38;16.28;98282.66;5086668;28;20028;-84
2021/01/09 10:01:25;;;;;;;14.23;8.07;;;;;;;21.14;18.03;98293.88;5087358;28;20112;-84
2021/01/09 10:03:51;;;;;;;11.95;7.05;;;;;;;21.37;18.25;98303.72;5090432;28;20121;-84
2021/01/09 10:06:22;;;;;;;13.13;7.15;;;;;;;21.05;18.42;98299.13;5087703;28;20028;-84
2021/01/09 10:08:51;;;;;;;14.23;7.68;;;;;;;22.10;17.77;98304.28;5087984;28;20024;-84
2021/01/09 10:11:17;;;;;;;11.90;6.93;;;;;;;22.28;17.41;98300.09;5084683;28;20063;-84
2021/01/09 10:13:43;;;;;;;10.70;6.60;;;;;;;22.47;17.21;98293.88;5089658;28;20031;-84
2021/01/09 10:16:09;;;;;;;10.43;6.13;;;;;;;22.43;17.17;98292.31;5090160;28;20024;-85
2021/01/09 10:18:36;;;;;;;9.63;5.72;;;;;;;22.91;17.07;98287.34;5092041;28;20028;-84
2021/01/09 10:21:03;;;;;;;12.95;7.32;;;;;;;23.15;16.84;98291.78;5071670;28;20032;-85
2021/01/09 10:23:30;;;;;;;11.95;7.90;;;;;;;21.52;17.69;98286.41;5068633;28;20040;-85
2021/01/09 10:25:56;;;;;;;11.30;6.65;;;;;;;21.82;17.67;98302.53;5057888;28;20122;-85
2021/01/09 10:28:23;;;;;;;10.05;5.95;;;;;;;23.16;16.56;98300.97;5087795;28;20134;-85
2021/01/09 10:30:50;;;;;;;12.38;6.95;;;;;;;22.75;16.62;98303.16;5085024;28;20055;-84
2021/01/09 10:33:16;;;;;;;10.52;5.75;;;;;;;23.77;15.92;98296.81;5088803;28;20062;-85
2021/01/09 10:35:48;;;;;;;15.38;7.82;;;;;;;22.97;16.49;98298.84;5090849;28;20063;-86
2021/01/09 10:38:16;;;;;;;15.02;7.55;;;;;;;23.00;16.42;98301.63;5089611;28;20081;-86
2021/01/09 10:40:43;;;;;;;11.45;6.20;;;;;;;23.22;16.63;98302.09;5084937;28;20879;-86
2021/01/09 10:43:09;;;;;;;11.52;6.38;;;;;;;23.16;16.18;98295.38;5089064;28;20488;-85
2021/01/09 10:45:35;;;;;;;11.40;6.15;;;;;;;23.26;16.41;98292.44;5087261;28;20595;-86
2021/01/09 10:48:01;;;;;;;11.77;6.00;;;;;;;22.25;17.25;98303.72;5087440;28;20024;-86
2021/01/09 10:50:28;;;;;;;8.35;5.15;;;;;;;21.85;18.26;98296.13;5064705;28;20040;-85
2021/01/09 10:52:54;;;;;;;12.70;7.30;;;;;;;23.01;16.96;98291.22;5084133;28;20555;-86
2021/01/09 10:55:20;;;;;;;9.27;5.32;;;;;;;24.39;16.08;98295.28;5087767;28;20081;-87
2021/01/09 10:57:46;;;;;;;11.82;7.10;;;;;;;24.27;15.53;98293.91;5067441;28;20396;-85
2021/01/09 11:00:15;;;;;;;10.70;6.05;;;;;;;23.76;15.84;98300.84;5087534;28;20032;-84
2021/01/09 11:02:41;;;;;;;8.02;4.78;;;;;;;24.17;15.46;98288.53;5086064;28;20036;-84
2021/01/09 11:05:08;;;;;;;7.10;4.35;;;;;;;23.34;15.90;98287.47;5074398;28;20028;-85
2021/01/09 11:07:34;;;;;;;7.55;4.43;;;;;;;24.65;15.53;98295.16;5084547;28;20032;-84
2021/01/09 11:10:00;;;;;;;9.40;5.20;;;;;;;24.45;15.32;98293.59;5089475;28;20526;-84
2021/01/09 11:12:26;;;;;;;10.43;6.20;;;;;;;24.09;15.69;98298.28;5084247;28;20040;-83
2021/01/09 11:14:52;;;;;;;9.70;5.40;;;;;;;24.74;15.43;98295.38;5088768;28;20043;-84
2021/01/09 11:17:19;;;;;;;9.48;5.88;;;;;;;24.47;15.17;98291.94;5086181;28;20086;-83
2021/01/09 11:19:45;;;;;;;8.68;5.38;;;;;;;25.20;14.59;98300.00;5090137;28;20028;-84
2021/01/09 11:22:11;;;;;;;13.50;6.50;;;;;;;25.40;14.44;98295.13;5088935;28;20081;-84
2021/01/09 11:24:40;;;;;;;12.52;6.55;;;;;;;25.49;14.17;98296.53;5067877;28;20041;-83
2021/01/09 11:27:07;;;;;;;11.93;6.22;;;;;;;25.66;14.37;98298.13;5090351;28;20024;-83
2021/01/09 11:29:34;;;;;;;10.63;6.35;;;;;;;25.67;14.29;98300.50;5095393;28;20020;-83
2021/01/09 11:32:05;;;;;;;11.82;6.65;;;;;;;25.01;14.49;98297.25;5094101;28;20491;-83